Time;durP1;ratioP1;P1;durP2;ratioP2;P2;SDS_P1;SDS_P2;PMS_P1;PMS_P2;Temp;Humidity;BMP_temperature;BMP_pressure;BME280_temperature;BME280_humidity;BME280_pressure;Samples;Min_cycle;Max_cycle;Signal;HPM_P1;HPM_P2
2023/11/17 00:02:02;;;;;;;2.60;1.73;;;;;6.60;95766.00;;;;5055901;28;20207;-67
2023/11/17 00:04:51;;;;;;;2.80;2.03;;;;;6.30;95766.00;;;;5063602;28;20235;-67
2023/11/17 00:07:40;;;;;;;2.27;1.70;;;;;6.10;95765.00;;;;5060742;28;20212;-67
2023/11/17 00:10:29;;;;;;;1.73;1.20;;;;;6.30;95754.00;;;;5062614;28;20727;-68
2023/11/17 00:13:18;;;;;;;2.20;1.63;;;;;6.20;95754.00;;;;5058986;28;20215;-68
2023/11/17 00:16:10;;;;;;;2.13;1.60;;;;;6.20;95753.00;;;;5061833;28;20219;-67
2023/11/17 00:18:59;;;;;;;1.87;1.30;;;;;6.30;95754.00;;;;5060009;28;20223;-67
2023/11/17 00:21:48;;;;;;;2.37;1.70;;;;;6.20;95742.00;;;;5061385;28;20669;-67
2023/11/17 00:24:37;;;;;;;3.57;2.70;;;;;6.50;95752.00;;;;5055547;28;20223;-68
2023/11/17 00:27:26;;;;;;;4.23;2.73;;;;;6.50;95744.00;;;;5057571;28;20559;-67
2023/11/17 00:30:15;;;;;;;2.17;1.60;;;;;6.10;95742.00;;;;5058563;28;20204;-67
2023/11/17 00:33:05;;;;;;;2.23;1.60;;;;;6.20;95719.00;;;;5064697;28;20196;-68
2023/11/17 00:35:55;;;;;;;2.17;1.40;;;;;6.00;95721.00;;;;5063956;28;20231;-68
2023/11/17 00:38:44;;;;;;;2.30;1.63;;;;;5.60;95705.00;;;;5061258;28;20216;-68
2023/11/17 00:41:34;;;;;;;2.73;1.87;;;;;5.50;95699.00;;;;5061966;28;20219;-68
2023/11/17 00:44:23;;;;;;;3.90;2.53;;;;;5.90;95697.00;;;;5059437;28;20210;-67
2023/11/17 00:47:12;;;;;;;2.07;1.73;;;;;5.90;95702.00;;;;5059648;28;20219;-67
2023/11/17 00:50:03;;;;;;;2.93;2.03;;;;;5.70;95682.00;;;;5056367;28;20204;-67
2023/11/17 00:52:55;;;;;;;2.50;1.83;;;;;5.20;95699.00;;;;5061429;28;20556;-67
2023/11/17 00:55:43;;;;;;;2.93;2.17;;;;;5.30;95692.00;;;;5065678;28;20221;-68
2023/11/17 00:58:33;;;;;;;2.57;1.90;;;;;5.80;95702.00;;;;5061581;28;20224;-69
2023/11/17 01:01:22;;;;;;;1.57;1.40;;;;;5.80;95705.00;;;;5063967;28;20199;-69
2023/11/17 01:04:12;;;;;;;2.37;1.70;;;;;6.10;95695.00;;;;5061346;28;20205;-69
2023/11/17 01:07:03;;;;;;;2.40;1.73;;;;;6.20;95695.00;;;;5063840;28;20199;-68
2023/11/17 01:09:52;;;;;;;2.40;1.60;;;;;5.80;95695.00;;;;5064049;28;20208;-69
2023/11/17 01:12:41;;;;;;;2.20;1.60;;;;;5.10;95700.00;;;;5065311;28;20208;-69
2023/11/17 01:15:30;;;;;;;3.43;2.47;;;;;5.60;95711.00;;;;5062159;28;20614;-68
2023/11/17 01:18:19;;;;;;;1.80;1.47;;;;;6.00;95698.00;;;;5054998;28;20586;-67
2023/11/17 01:21:08;;;;;;;1.70;1.37;;;;;6.10;95698.00;;;;5057649;28;20861;-68
2023/11/17 01:24:00;;;;;;;2.77;1.90;;;;;6.10;95689.00;;;;5057040;28;20578;-67
2023/11/17 01:26:50;;;;;;;2.27;1.57;;;;;5.80;95671.00;;;;5062379;28;20238;-66
2023/11/17 01:29:39;;;;;;;5.30;3.57;;;;;5.20;95661.00;;;;5061487;28;20193;-69
2023/11/17 01:32:31;;;;;;;3.53;2.33;;;;;5.30;95660.00;;;;5065916;28;20211;-68
2023/11/17 01:35:20;;;;;;;2.13;1.50;;;;;5.20;95667.00;;;;5054395;28;20224;-66
2023/11/17 01:38:11;;;;;;;1.47;1.07;;;;;5.00;95664.00;;;;5062405;28;20204;-68
2023/11/17 01:41:02;;;;;;;2.03;1.40;;;;;5.00;95653.00;;;;5060336;28;20199;-67
2023/11/17 01:43:51;;;;;;;2.60;1.90;;;;;4.50;95652.00;;;;5055675;28;20200;-66
2023/11/17 01:46:40;;;;;;;2.40;1.70;;;;;5.10;95648.00;;;;5061245;28;20451;-67
2023/11/17 01:49:30;;;;;;;3.87;2.57;;;;;4.90;95636.00;;;;5065448;28;20203;-69
2023/11/17 01:52:20;;;;;;;2.87;1.90;;;;;5.10;95646.00;;;;5067098;28;20200;-68
2023/11/17 01:55:11;;;;;;;2.77;1.90;;;;;5.40;95640.00;;;;5064885;28;20243;-68
2023/11/17 01:58:02;;;;;;;3.50;2.40;;;;;5.70;95641.00;;;;5062119;28;20200;-67
2023/11/17 02:00:53;;;;;;;2.27;1.70;;;;;5.50;95639.00;;;;5062291;28;20204;-68
2023/11/17 02:03:42;;;;;;;2.57;1.77;;;;;5.80;95642.00;;;;5057366;28;20211;-68
2023/11/17 02:06:41;;;;;;;4.00;2.77;;;;;5.80;95633.00;;;;5053755;28;20239;-68
2023/11/17 02:09:37;;;;;;;3.03;2.30;;;;;5.30;95625.00;;;;5061759;28;20222;-67
2023/11/17 02:12:46;;;;;;;2.43;1.87;;;;;5.50;95633.00;;;;5062138;28;20719;-67
2023/11/17 02:15:39;;;;;;;2.83;2.23;;;;;5.20;95628.00;;;;5062641;28;20228;-66
2023/11/17 02:18:30;;;;;;;2.37;1.80;;;;;5.60;95615.00;;;;5063996;28;20230;-68
2023/11/17 02:21:23;;;;;;;2.90;2.07;;;;;5.40;95612.00;;;;5062530;28;20204;-68
2023/11/17 02:24:13;;;;;;;2.00;1.50;;;;;5.20;95609.00;;;;5060378;28;20238;-68
2023/11/17 02:27:14;;;;;;;1.87;1.37;;;;;5.40;95613.00;;;;5060602;28;20192;-68
2023/11/17 02:30:06;;;;;;;1.63;1.23;;;;;4.60;95618.00;;;;5060731;28;20192;-68
2023/11/17 02:32:55;;;;;;;1.93;1.50;;;;;4.70;95622.00;;;;5068302;28;20204;-67
2023/11/17 02:35:44;;;;;;;2.50;1.77;;;;;5.20;95610.00;;;;5059965;28;20233;-68
2023/11/17 02:38:33;;;;;;;3.97;2.77;;;;;5.60;95599.00;;;;5061511;28;20217;-68
2023/11/17 02:41:29;;;;;;;2.30;1.70;;;;;5.40;95600.00;;;;5064072;28;20207;-68
2023/11/17 02:44:19;;;;;;;1.83;1.50;;;;;4.90;95605.00;;;;5056744;28;20204;-68
2023/11/17 02:47:19;;;;;;;1.37;1.00;;;;;4.40;95610.00;;;;5060935;28;20611;-65
2023/11/17 02:50:10;;;;;;;2.90;2.13;;;;;5.20;95622.00;;;;5059873;28;20220;-68
2023/11/17 02:53:10;;;;;;;2.20;1.67;;;;;5.50;95599.00;;;;5059660;28;20200;-67
2023/11/17 02:56:00;;;;;;;3.00;1.93;;;;;5.20;95623.00;;;;5060210;28;20215;-68
2023/11/17 02:58:54;;;;;;;2.20;1.70;;;;;5.20;95611.00;;;;5063398;28;20209;-68
2023/11/17 03:01:43;;;;;;;1.10;0.97;;;;;5.40;95611.00;;;;5057419;28;20613;-68
2023/11/17 03:04:37;;;;;;;3.10;2.33;;;;;5.60;95622.00;;;;5060488;28;20211;-67
2023/11/17 03:07:26;;;;;;;3.43;2.33;;;;;5.40;95607.00;;;;5063713;28;20588;-67
2023/11/17 03:10:15;;;;;;;2.23;1.70;;;;;5.40;95609.00;;;;5060543;28;20211;-67
2023/11/17 03:13:04;;;;;;;1.97;1.50;;;;;5.30;95613.00;;;;5066948;28;20731;-69
2023/11/17 03:15:53;;;;;;;2.53;1.83;;;;;5.60;95602.00;;;;5061188;28;20221;-67
2023/11/17 03:18:41;;;;;;;2.13;1.50;;;;;5.70;95610.00;;;;5063756;28;20412;-68
2023/11/17 03:21:32;;;;;;;3.87;2.63;;;;;5.80;95605.00;;;;5062873;28;20207;-67
2023/11/17 03:24:23;;;;;;;2.13;1.53;;;;;5.90;95594.00;;;;5062546;28;20712;-68
2023/11/17 03:27:14;;;;;;;1.67;1.23;;;;;5.50;95587.00;;;;5062619;28;20703;-67
2023/11/17 03:30:09;;;;;;;3.10;2.10;;;;;5.70;95581.00;;;;5060175;28;20203;-68
2023/11/17 03:32:58;;;;;;;2.03;1.57;;;;;5.70;95595.00;;;;5054216;28;20200;-69
2023/11/17 03:35:47;;;;;;;2.50;1.80;;;;;5.60;95587.00;;;;5059901;28;20649;-67
2023/11/17 03:38:38;;;;;;;3.23;2.33;;;;;5.20;95572.00;;;;5064000;28;20204;-68
2023/11/17 03:41:27;;;;;;;2.73;1.80;;;;;5.40;95577.00;;;;5062929;28;20251;-68
2023/11/17 03:44:16;;;;;;;1.97;1.50;;;;;6.00;95576.00;;;;5063139;28;20227;-68
2023/11/17 03:47:06;;;;;;;2.47;1.60;;;;;5.60;95590.00;;;;5060469;28;20192;-68
2023/11/17 03:49:56;;;;;;;2.20;1.67;;;;;5.40;95568.00;;;;5056752;28;20762;-67
2023/11/17 03:52:45;;;;;;;2.53;1.80;;;;;5.70;95589.00;;;;5065630;28;20192;-69
2023/11/17 03:55:36;;;;;;;3.93;2.67;;;;;5.80;95579.00;;;;5064194;28;20230;-68
2023/11/17 03:58:27;;;;;;;2.43;1.67;;;;;5.90;95570.00;;;;5063575;28;20357;-68
2023/11/17 04:01:16;;;;;;;2.33;1.77;;;;;5.90;95590.00;;;;5058585;28;20224;-68
2023/11/17 04:04:05;;;;;;;2.40;1.80;;;;;5.30;95574.00;;;;5064381;28;20200;-69
2023/11/17 04:06:57;;;;;;;3.23;1.90;;;;;5.80;95581.00;;;;5070216;23;20239;-86
2023/11/17 04:09:47;;;;;;;7.00;3.70;;;;;6.30;95599.00;;;;5045749;28;20200;-85
2023/11/17 04:12:38;;;;;;;4.93;2.77;;;;;5.90;95596.00;;;;5042340;28;20690;-86
2023/11/17 04:15:28;;;;;;;4.30;2.30;;;;;5.90;95619.00;;;;5047395;28;20228;-86
2023/11/17 04:18:17;;;;;;;3.30;1.80;;;;;6.00;95626.00;;;;5034613;28;20220;-88
2023/11/17 04:21:06;;;;;;;3.00;1.70;;;;;6.10;95622.00;;;;5039982;28;20232;-88
2023/11/17 04:23:55;;;;;;;3.77;2.03;;;;;6.20;95635.00;;;;5036097;28;20206;-88
2023/11/17 04:26:46;;;;;;;4.37;2.30;;;;;5.80;95636.00;;;;5042520;28;20687;-87
2023/11/17 04:29:36;;;;;;;8.57;4.03;;;;;6.20;95647.00;;;;5041059;28;20288;-88
2023/11/17 04:32:25;;;;;;;2.07;1.20;;;;;6.00;95653.00;;;;5042012;28;20694;-88
2023/11/17 04:35:14;;;;;;;1.63;0.90;;;;;5.90;95661.00;;;;5044299;28;20220;-86
2023/11/17 04:38:04;;;;;;;3.73;1.93;;;;;5.10;95655.00;;;;5038852;28;20417;-88
2023/11/17 04:40:54;;;;;;;2.40;1.30;;;;;5.30;95648.00;;;;5033532;28;20221;-88
2023/11/17 04:43:43;;;;;;;4.23;2.10;;;;;5.40;95647.00;;;;5045451;28;20227;-89
2023/11/17 04:46:33;;;;;;;4.90;2.43;;;;;5.80;95642.00;;;;5039367;28;20209;-88
2023/11/17 04:49:23;;;;;;;3.30;1.80;;;;;6.10;95643.00;;;;5037766;28;20205;-87
2023/11/17 04:52:12;;;;;;;3.70;2.07;;;;;6.40;95641.00;;;;5038547;28;20216;-87
2023/11/17 04:55:05;;;;;;;6.07;2.97;;;;;5.90;95642.00;;;;5040091;28;20228;-87
2023/11/17 04:57:54;;;;;;;6.40;3.07;;;;;6.30;95637.00;;;;5040417;28;20201;-86
2023/11/17 05:00:46;;;;;;;6.87;3.47;;;;;5.70;95632.00;;;;5040943;28;20229;-86
2023/11/17 05:03:36;;;;;;;3.93;2.07;;;;;5.90;95648.00;;;;5038086;28;20833;-88
2023/11/17 05:06:25;;;;;;;4.50;2.23;;;;;6.20;95650.00;;;;5035495;28;20218;-87
2023/11/17 05:09:17;;;;;;;3.73;1.90;;;;;6.40;95643.00;;;;5034035;28;20201;-87
2023/11/17 05:12:06;;;;;;;3.47;1.80;;;;;6.30;95653.00;;;;5035031;28;20208;-86
2023/11/17 05:14:55;;;;;;;2.90;1.47;;;;;6.20;95656.00;;;;5037518;28;20224;-88
2023/11/17 05:17:46;;;;;;;3.80;1.87;;;;;6.40;95654.00;;;;5040104;28;20342;-87
2023/11/17 05:20:37;;;;;;;6.23;3.17;;;;;5.70;95649.00;;;;5040744;28;20223;-86
2023/11/17 05:23:26;;;;;;;4.40;2.13;;;;;6.30;95671.00;;;;5037080;28;20216;-85
2023/11/17 05:26:15;;;;;;;3.23;1.77;;;;;6.70;95666.00;;;;5039677;28;20701;-85
2023/11/17 05:29:05;;;;;;;3.30;1.80;;;;;6.80;95667.00;;;;5038386;28;20201;-87
2023/11/17 05:31:54;;;;;;;4.87;2.40;;;;;6.40;95675.00;;;;5034739;28;20580;-86
2023/11/17 05:34:43;;;;;;;7.70;3.77;;;;;6.40;95673.00;;;;5034697;28;20723;-85
2023/11/17 05:37:34;;;;;;;7.57;3.53;;;;;6.10;95674.00;;;;5038505;28;20220;-86
2023/11/17 05:40:23;;;;;;;4.00;2.17;;;;;5.90;95672.00;;;;5042685;28;20202;-87
2023/11/17 05:43:12;;;;;;;4.60;2.17;;;;;6.10;95692.00;;;;5031584;28;20247;-86
2023/11/17 05:46:02;;;;;;;4.50;2.20;;;;;6.60;95689.00;;;;5033684;28;20224;-86
2023/11/17 05:48:53;;;;;;;4.77;2.30;;;;;6.40;95700.00;;;;5032408;28;20198;-87
2023/11/17 05:51:46;;;;;;;5.97;3.07;;;;;6.20;95707.00;;;;5036876;28;20229;-89
2023/11/17 05:54:43;;;;;;;5.43;2.67;;;;;6.10;95720.00;;;;5042244;28;20258;-89
2023/11/17 05:57:32;;;;;;;6.00;2.97;;;;;6.10;95729.00;;;;5043343;28;20650;-87
2023/11/17 06:00:26;;;;;;;3.20;1.73;;;;;6.40;95736.00;;;;5039548;28;20216;-87
2023/11/17 06:03:15;;;;;;;2.43;1.27;;;;;6.10;95745.00;;;;5042588;28;20216;-90
2023/11/17 06:06:05;;;;;;;5.43;2.83;;;;;6.30;95743.00;;;;5036368;28;20231;-87
2023/11/17 06:08:54;;;;;;;4.20;2.13;;;;;6.20;95752.00;;;;5049221;28;20196;-89
2023/11/17 06:11:45;;;;;;;5.50;2.93;;;;;5.70;95754.00;;;;5034634;28;20217;-87
2023/11/17 06:14:34;;;;;;;6.23;3.13;;;;;6.40;95770.00;;;;5041625;28;20228;-88
2023/11/17 06:17:25;;;;;;;4.37;2.20;;;;;6.80;95770.00;;;;5039537;28;20205;-88
2023/11/17 06:20:14;;;;;;;3.87;2.10;;;;;6.70;95788.00;;;;5049678;28;20201;-88
2023/11/17 06:23:03;;;;;;;6.00;2.87;;;;;6.80;95804.00;;;;5041087;28;20194;-87
2023/11/17 06:25:52;;;;;;;3.73;1.93;;;;;7.00;95808.00;;;;5044331;28;20521;-88
2023/11/17 06:28:43;;;;;;;6.80;3.37;;;;;6.60;95816.00;;;;5038770;28;20213;-86
2023/11/17 06:31:32;;;;;;;5.63;2.80;;;;;7.00;95824.00;;;;5043065;28;20204;-88
2023/11/17 06:34:21;;;;;;;4.13;2.03;;;;;7.20;95847.00;;;;5037226;28;20224;-87
2023/11/17 06:37:12;;;;;;;7.13;3.37;;;;;6.80;95855.00;;;;5036834;28;20759;-88
2023/11/17 06:40:01;;;;;;;6.17;3.00;;;;;7.10;95846.00;;;;5042009;28;20213;-87
2023/11/17 06:42:50;;;;;;;6.23;3.00;;;;;6.50;95844.00;;;;5043345;28;20217;-88
2023/11/17 06:45:41;;;;;;;9.63;4.40;;;;;6.60;95852.00;;;;5040588;28;20236;-87
2023/11/17 06:48:30;;;;;;;8.07;3.70;;;;;7.20;95864.00;;;;5043221;28;20201;-87
2023/11/17 06:51:20;;;;;;;4.13;1.97;;;;;7.10;95870.00;;;;5040904;28;20205;-87
2023/11/17 06:54:10;;;;;;;0.83;0.60;;;;;7.20;95884.00;;;;5038555;28;20208;-88
2023/11/17 06:56:59;;;;;;;3.40;1.80;;;;;7.60;95891.00;;;;5038010;28;20216;-88
2023/11/17 06:59:48;;;;;;;6.77;3.20;;;;;7.70;95903.00;;;;5036363;28;20208;-88
2023/11/17 07:02:40;;;;;;;7.30;3.40;;;;;8.00;95916.00;;;;5033369;28;20229;-88
2023/11/17 07:05:29;;;;;;;4.93;2.30;;;;;8.20;95922.00;;;;5044554;28;20503;-87
2023/11/17 07:08:21;;;;;;;7.23;3.40;;;;;8.20;95936.00;;;;5039971;28;20677;-87
2023/11/17 07:11:22;;;;;;;2.97;1.50;;;;;8.10;95951.00;;;;5040514;28;20306;-87
2023/11/17 07:14:25;;;;;;;3.50;1.70;;;;;8.10;95966.00;;;;5046282;28;20236;-87
2023/11/17 07:17:15;;;;;;;1.70;1.00;;;;;8.40;95972.00;;;;5032443;28;20685;-87
2023/11/17 07:20:11;;;;;;;5.57;2.50;;;;;8.60;95987.00;;;;5036372;28;20197;-87
2023/11/17 07:23:00;;;;;;;6.73;3.03;;;;;8.50;95977.00;;;;5038704;28;20230;-88
2023/11/17 07:25:55;;;;;;;5.23;2.43;;;;;7.50;95975.00;;;;5068821;28;20428;-91
2023/11/17 07:28:44;;;;;;;6.20;3.10;;;;;8.10;96009.00;;;;5064602;28;20208;-88
2023/11/17 07:31:37;;;;;;;11.07;4.70;;;;;8.50;96015.00;;;;5041046;28;20212;-87
2023/11/17 07:34:26;;;;;;;3.27;1.57;;;;;8.60;96031.00;;;;5040978;28;20225;-86
2023/11/17 07:37:17;;;;;;;4.10;2.00;;;;;8.20;96035.00;;;;5036046;28;20605;-87
2023/11/17 07:40:09;;;;;;;5.73;2.60;;;;;8.50;96046.00;;;;5040283;28;20202;-86
2023/11/17 07:42:58;;;;;;;3.77;1.80;;;;;8.80;96051.00;;;;5046114;28;20228;-88
2023/11/17 07:45:47;;;;;;;3.17;1.50;;;;;8.70;96069.00;;;;5034642;28;20229;-86
2023/11/17 07:48:37;;;;;;;5.37;2.50;;;;;8.50;96073.00;;;;5037822;28;20319;-86
2023/11/17 07:51:29;;;;;;;6.80;3.03;;;;;8.70;96074.00;;;;5035965;28;20275;-87
2023/11/17 07:54:22;;;;;;;4.70;2.07;;;;;9.00;96091.00;;;;5037711;28;20662;-87
2023/11/17 07:57:11;;;;;;;4.37;1.90;;;;;8.50;96097.00;;;;5042141;28;20200;-88
2023/11/17 08:00:00;;;;;;;5.43;2.40;;;;;9.20;96097.00;;;;5039045;28;20212;-87
2023/11/17 08:02:50;;;;;;;6.97;3.03;;;;;9.40;96107.00;;;;5041672;28;20232;-86
2023/11/17 08:05:39;;;;;;;9.00;4.10;;;;;9.40;96109.00;;;;5040692;28;20239;-86
2023/11/17 08:08:29;;;;;;;4.87;2.43;;;;;9.70;96115.00;;;;5045150;28;20205;-87
2023/11/17 08:11:22;;;;;;;4.73;2.10;;;;;9.60;96120.00;;;;5041153;28;20208;-87
2023/11/17 08:14:11;;;;;;;4.23;1.87;;;;;9.90;96131.00;;;;5041849;28;20489;-86
2023/11/17 08:17:01;;;;;;;1.87;1.00;;;;;10.00;96131.00;;;;5041555;28;20592;-86
2023/11/17 08:19:50;;;;;;;4.00;1.80;;;;;10.20;96138.00;;;;5047290;28;20257;-86
2023/11/17 08:22:39;;;;;;;5.67;2.53;;;;;9.70;96144.00;;;;5046273;28;20235;-88
2023/11/17 08:25:29;;;;;;;3.57;1.70;;;;;10.20;96146.00;;;;5044733;28;20216;-87
2023/11/17 08:28:20;;;;;;;3.30;1.50;;;;;10.10;96152.00;;;;5043406;28;20205;-87
2023/11/17 08:31:14;;;;;;;5.03;2.17;;;;;10.50;96170.00;;;;5034445;28;20197;-87
2023/11/17 08:34:04;;;;;;;7.27;3.03;;;;;10.70;96158.00;;;;5041698;28;20680;-86
2023/11/17 08:36:53;;;;;;;4.53;2.00;;;;;10.70;96177.00;;;;5034660;28;20529;-86
2023/11/17 08:39:43;;;;;;;8.07;3.20;;;;;10.70;96179.00;;;;5035831;28;20220;-88
2023/11/17 08:42:33;;;;;;;8.10;3.40;;;;;10.80;96188.00;;;;5034949;28;20229;-86
2023/11/17 08:45:24;;;;;;;4.13;1.80;;;;;11.00;96191.00;;;;5041291;28;20231;-86
2023/11/17 08:48:13;;;;;;;4.13;1.87;;;;;11.00;96197.00;;;;5043282;28;20201;-84
2023/11/17 08:51:02;;;;;;;5.20;2.10;;;;;10.60;96204.00;;;;5037971;28;20594;-86
2023/11/17 08:53:51;;;;;;;4.70;2.10;;;;;11.10;96222.00;;;;5045914;28;20201;-86
2023/11/17 08:56:41;;;;;;;8.57;3.63;;;;;11.00;96211.00;;;;5038336;28;20211;-84
2023/11/17 08:59:30;;;;;;;7.13;2.97;;;;;11.10;96214.00;;;;5040990;28;20696;-86
2023/11/17 09:02:20;;;;;;;4.07;1.80;;;;;10.80;96232.00;;;;5042968;28;20224;-86
2023/11/17 09:05:10;;;;;;;6.30;2.77;;;;;11.20;96218.00;;;;5038025;28;20733;-86
2023/11/17 09:08:00;;;;;;;6.70;2.80;;;;;11.10;96237.00;;;;5036928;28;20224;-86
2023/11/17 09:10:49;;;;;;;5.40;2.33;;;;;11.30;96243.00;;;;5037478;28;20666;-85
2023/11/17 09:13:40;;;;;;;3.97;1.80;;;;;11.30;96244.00;;;;5034686;28;20202;-85
2023/11/17 09:16:29;;;;;;;3.07;1.47;;;;;11.40;96246.00;;;;5037263;28;20251;-85
2023/11/17 09:19:26;;;;;;;3.33;1.50;;;;;10.80;96236.00;;;;5034152;28;20227;-87
2023/11/17 09:22:15;;;;;;;4.23;1.80;;;;;11.30;96240.00;;;;5041580;28;20209;-88
2023/11/17 09:25:13;;;;;;;9.30;3.87;;;;;10.90;96231.00;;;;5038005;28;20700;-83
2023/11/17 09:28:02;;;;;;;7.40;3.20;;;;;11.50;96246.00;;;;5047521;28;20612;-87
2023/11/17 09:30:52;;;;;;;2.60;1.30;;;;;11.20;96242.00;;;;5036500;28;20201;-87
2023/11/17 09:33:41;;;;;;;7.50;3.33;;;;;11.30;96238.00;;;;5039211;28;20202;-86
2023/11/17 09:36:32;;;;;;;8.00;3.47;;;;;11.00;96241.00;;;;5037060;28;20222;-87
2023/11/17 09:39:21;;;;;;;3.67;1.53;;;;;11.00;96244.00;;;;5038121;28;20662;-85
2023/11/17 09:42:10;;;;;;;3.93;1.83;;;;;10.60;96245.00;;;;5036817;28;20242;-85
2023/11/17 09:45:04;;;;;;;7.43;2.90;;;;;11.30;96247.00;;;;5038812;28;20224;-87
2023/11/17 09:47:54;;;;;;;8.83;3.53;;;;;11.30;96222.00;;;;5037816;28;20642;-85
2023/11/17 09:50:45;;;;;;;10.77;4.40;;;;;11.90;96247.00;;;;5039386;28;20673;-86
2023/11/17 09:53:37;;;;;;;9.50;3.87;;;;;12.00;96244.00;;;;5034794;28;20201;-86
2023/11/17 09:56:28;;;;;;;3.33;1.50;;;;;12.10;96249.00;;;;5038279;28;20209;-86
2023/11/17 09:59:18;;;;;;;5.23;2.20;;;;;11.30;96229.00;;;;5035029;28;20205;-82
2023/11/17 10:02:10;;;;;;;5.53;2.37;;;;;11.70;96234.00;;;;5039895;28;20591;-81
2023/11/17 10:05:08;;;;;;;6.23;2.53;;;;;11.80;96242.00;;;;5036901;28;20224;-86
2023/11/17 10:09:01;;;;;;;8.90;3.70;;;;;11.90;96244.00;;;;5033550;28;20202;-85
2023/11/17 10:16:13;;;;;;;5.87;2.43;;;;;12.00;96258.00;;;;4957690;28;20231;-85
2023/11/17 10:19:26;;;;;;;3.90;1.80;;;;;11.10;96250.00;;;;4957293;28;20289;-86
2023/11/17 10:22:33;;;;;;;4.47;1.93;;;;;12.20;96268.00;;;;4959173;28;20759;-86
2023/11/17 10:25:29;;;;;;;4.20;1.77;;;;;12.40;96264.00;;;;4950727;28;20316;-85
2023/11/17 10:28:28;;;;;;;2.83;1.37;;;;;12.40;96276.00;;;;4953314;28;20645;-86
2023/11/17 10:31:23;;;;;;;4.97;2.00;;;;;12.50;96276.00;;;;4953637;28;20208;-87
2023/11/17 10:34:16;;;;;;;4.47;1.90;;;;;11.00;96250.00;;;;4956129;28;20558;-83
2023/11/17 10:37:07;;;;;;;2.27;1.07;;;;;11.80;96262.00;;;;4961376;28;20652;-87
2023/11/17 10:39:57;;;;;;;4.47;2.00;;;;;11.80;96272.00;;;;4955416;28;20266;-88
2023/11/17 10:42:49;;;;;;;8.07;3.63;;;;;11.70;96266.00;;;;4951273;28;20238;-84
2023/11/17 10:45:39;;;;;;;10.70;4.33;;;;;12.50;96271.00;;;;4957064;28;20231;-85
2023/11/17 10:48:28;;;;;;;4.50;1.90;;;;;12.00;96271.00;;;;4954314;28;20242;-86
2023/11/17 10:51:18;;;;;;;6.07;2.50;;;;;11.90;96280.00;;;;4953075;28;20212;-84
2023/11/17 10:54:09;;;;;;;3.27;1.53;;;;;12.40;96281.00;;;;5033486;28;20584;-86
2023/11/17 10:57:11;;;;;;;2.97;1.20;;;;;11.80;96281.00;;;;5042351;28;20580;-85
2023/11/17 11:00:08;;;;;;;4.33;1.97;;;;;12.50;96296.00;;;;5037461;28;20208;-85
2023/11/17 11:02:57;;;;;;;4.70;2.13;;;;;12.50;96296.00;;;;5038433;28;20204;-86
2023/11/17 11:05:47;;;;;;;9.07;3.97;;;;;11.90;96296.00;;;;5034448;28;20278;-88
2023/11/17 11:08:37;;;;;;;8.57;3.57;;;;;12.50;96292.00;;;;5038522;28;20197;-88
2023/11/17 11:11:26;;;;;;;5.20;2.30;;;;;12.20;96314.00;;;;5042416;28;20219;-86
2023/11/17 11:14:17;;;;;;;5.67;2.27;;;;;12.00;96304.00;;;;5038657;28;20193;-82
2023/11/17 11:17:09;;;;;;;16.47;6.33;;;;;11.70;96314.00;;;;5062169;28;20220;-82
2023/11/17 11:19:59;;;;;;;2.87;1.23;;;;;12.80;96305.00;;;;5062171;28;20182;-87
2023/11/17 11:22:52;;;;;;;5.40;2.20;;;;;12.20;96304.00;;;;5042738;28;20290;-88
2023/11/17 11:25:41;;;;;;;8.87;3.30;;;;;12.20;96310.00;;;;5038933;28;20225;-87
2023/11/17 11:28:32;;;;;;;5.03;1.97;;;;;12.40;96330.00;;;;5039527;28;20231;-88
2023/11/17 11:31:21;;;;;;;5.27;2.13;;;;;12.30;96313.00;;;;5035321;28;20213;-87
2023/11/17 11:34:13;;;;;;;4.03;1.63;;;;;12.60;96314.00;;;;5034322;28;20292;-87
2023/11/17 11:37:03;;;;;;;4.77;1.90;;;;;11.80;96319.00;;;;5034858;28;20194;-86
2023/11/17 11:39:52;;;;;;;5.57;2.30;;;;;12.50;96320.00;;;;5030433;28;20205;-86
2023/11/17 11:42:42;;;;;;;8.37;3.50;;;;;12.50;96327.00;;;;5035391;28;20281;-86
2023/11/17 11:45:34;;;;;;;5.57;2.20;;;;;12.60;96331.00;;;;5042659;28;20224;-88
2023/11/17 11:48:25;;;;;;;4.60;1.83;;;;;12.40;96338.00;;;;5045026;28;20208;-87
2023/11/17 11:51:16;;;;;;;3.87;1.60;;;;;12.90;96344.00;;;;5035769;28;20212;-86
2023/11/17 11:54:08;;;;;;;4.17;1.67;;;;;12.50;96350.00;;;;5036366;28;20201;-88
2023/11/17 11:57:02;;;;;;;5.07;2.07;;;;;12.60;96349.00;;;;5035826;28;20675;-87
2023/11/17 11:59:52;;;;;;;5.73;2.30;;;;;12.60;96361.00;;;;5039178;28;20216;-86
2023/11/17 12:02:53;;;;;;;9.83;4.00;;;;;12.80;96368.00;;;;5039454;28;20586;-86
2023/11/17 12:05:45;;;;;;;13.80;5.20;;;;;12.50;96359.00;;;;5038559;28;20617;-87
2023/11/17 12:08:36;;;;;;;11.00;4.27;;;;;12.60;96358.00;;;;5040869;28;20674;-86
2023/11/17 12:11:31;;;;;;;4.97;2.00;;;;;12.90;96373.00;;;;5039837;28;20197;-87
2023/11/17 12:14:26;;;;;;;7.17;2.73;;;;;12.50;96361.00;;;;5041606;28;20232;-87
2023/11/17 12:17:16;;;;;;;4.70;1.90;;;;;12.50;96353.00;;;;5040342;28;20679;-88
2023/11/17 12:20:22;;;;;;;5.57;2.23;;;;;10.60;96361.00;;;;5042516;28;20227;-86
2023/11/17 12:23:12;;;;;;;2.77;1.20;;;;;11.90;96358.00;;;;5038697;28;20204;-86
2023/11/17 12:26:05;;;;;;;6.40;2.67;;;;;11.00;96362.00;;;;5034146;28;20221;-87
2023/11/17 12:28:57;;;;;;;3.37;1.47;;;;;10.20;96368.00;;;;5041388;28;20208;-86
2023/11/17 12:31:50;;;;;;;8.67;3.77;;;;;11.20;96381.00;;;;5036826;28;20580;-88
2023/11/17 12:34:44;;;;;;;8.93;3.60;;;;;11.50;96369.00;;;;5037510;28;20728;-85
2023/11/17 12:37:34;;;;;;;6.00;2.37;;;;;11.80;96389.00;;;;5046802;28;20211;-84
2023/11/17 12:40:23;;;;;;;5.23;2.20;;;;;11.40;96393.00;;;;5037265;28;20197;-87
2023/11/17 12:43:14;;;;;;;3.83;1.73;;;;;11.60;96393.00;;;;5044606;28;20620;-87
2023/11/17 12:46:05;;;;;;;16.20;6.80;;;;;11.50;96398.00;;;;5040127;28;20224;-87
2023/11/17 12:48:54;;;;;;;6.47;2.73;;;;;11.60;96399.00;;;;5042166;28;20689;-83
2023/11/17 12:51:44;;;;;;;9.50;4.00;;;;;12.10;96406.00;;;;5039354;28;20206;-84
2023/11/17 12:54:33;;;;;;;5.67;2.33;;;;;12.10;96416.00;;;;5042637;28;20217;-86
2023/11/17 12:57:22;;;;;;;4.27;1.97;;;;;12.30;96408.00;;;;5039149;28;20701;-85
2023/11/17 13:00:20;;;;;;;4.77;2.13;;;;;12.00;96413.00;;;;5045610;28;20208;-86
2023/11/17 13:03:10;;;;;;;4.93;2.13;;;;;11.80;96421.00;;;;5040067;28;20198;-85
2023/11/17 13:05:59;;;;;;;7.67;3.13;;;;;11.70;96422.00;;;;5044677;28;20762;-85
2023/11/17 13:08:49;;;;;;;11.93;5.07;;;;;11.70;96423.00;;;;5041651;28;20207;-85
2023/11/17 13:11:42;;;;;;;9.53;4.00;;;;;11.00;96416.00;;;;5045712;28;20208;-88
2023/11/17 13:14:32;;;;;;;5.43;2.47;;;;;10.70;96429.00;;;;5039366;28;20232;-87
2023/11/17 13:17:24;;;;;;;2.60;1.20;;;;;11.00;96426.00;;;;5035221;28;20612;-87
2023/11/17 13:20:20;;;;;;;4.73;2.07;;;;;11.30;96434.00;;;;5037546;28;20207;-86
2023/11/17 13:23:09;;;;;;;3.87;1.63;;;;;11.30;96435.00;;;;5037428;28;20208;-87
2023/11/17 13:26:07;;;;;;;7.67;3.10;;;;;11.00;96439.00;;;;5041382;28;20599;-85
2023/11/17 13:28:57;;;;;;;5.87;2.33;;;;;11.00;96433.00;;;;5033782;28;20212;-85
2023/11/17 13:31:58;;;;;;;10.87;4.57;;;;;11.20;96426.00;;;;5034400;28;20227;-85
2023/11/17 13:34:56;;;;;;;11.17;4.70;;;;;11.50;96442.00;;;;5039321;28;20219;-84
2023/11/17 13:37:45;;;;;;;9.53;4.17;;;;;10.90;96444.00;;;;5045191;28;20209;-84
2023/11/17 13:40:37;;;;;;;7.23;3.23;;;;;10.80;96437.00;;;;5043795;28;20201;-86
2023/11/17 13:43:27;;;;;;;7.73;3.17;;;;;10.60;96439.00;;;;5041957;28;20209;-84
2023/11/17 13:46:17;;;;;;;4.00;1.83;;;;;10.80;96456.00;;;;5036550;28;20228;-86
2023/11/17 13:49:09;;;;;;;5.77;2.57;;;;;11.00;96449.00;;;;5039199;28;20205;-86
2023/11/17 13:52:02;;;;;;;5.87;2.47;;;;;10.70;96454.00;;;;5037685;28;20254;-87
2023/11/17 13:54:52;;;;;;;8.00;3.70;;;;;11.00;96450.00;;;;5042068;28;20231;-85
2023/11/17 13:57:41;;;;;;;7.90;3.40;;;;;10.90;96457.00;;;;5040073;28;20851;-85
2023/11/17 14:00:34;;;;;;;3.37;1.47;;;;;10.10;96450.00;;;;5038944;28;20572;-83
2023/11/17 14:03:24;;;;;;;4.13;1.90;;;;;10.70;96461.00;;;;5038686;28;20200;-85
2023/11/17 14:06:13;;;;;;;4.90;2.03;;;;;11.00;96476.00;;;;5036293;28;20706;-84
2023/11/17 14:09:06;;;;;;;4.40;1.93;;;;;10.80;96470.00;;;;5038737;28;20208;-86
2023/11/17 14:11:57;;;;;;;4.13;1.93;;;;;10.60;96471.00;;;;5040956;28;20209;-87
2023/11/17 14:14:46;;;;;;;7.73;3.50;;;;;10.50;96479.00;;;;5045490;28;20267;-86
2023/11/17 14:17:35;;;;;;;5.30;2.33;;;;;10.40;96487.00;;;;5042465;28;20209;-84
2023/11/17 14:20:26;;;;;;;4.53;2.03;;;;;10.30;96487.00;;;;5039557;28;20209;-86
2023/11/17 14:23:15;;;;;;;3.20;1.53;;;;;10.40;96500.00;;;;5047946;28;20246;-88
2023/11/17 14:26:08;;;;;;;4.50;2.00;;;;;10.90;96498.00;;;;5064279;28;20236;-86
2023/11/17 14:28:57;;;;;;;3.47;1.53;;;;;10.80;96513.00;;;;5064773;28;20213;-87